Time;durP1;ratioP1;P1;durP2;ratioP2;P2;SDS_P1;SDS_P2;PMS_P1;PMS_P2;Temp;Humidity;BMP_temperature;BMP_pressure;BME280_temperature;BME280_humidity;BME280_pressure;Samples;Min_cycle;Max_cycle;Signal;HPM_P1;HPM_P2
2023/06/22 00:02:14;;;;;;;23.50;20.20;;;18.60;99.90;;;;;;5069285;28;20044;-60
2023/06/22 00:04:42;;;;;;;23.20;20.52;;;18.60;99.90;;;;;;5049405;28;20198;-61
2023/06/22 00:07:08;;;;;;;19.15;16.20;;;18.50;99.90;;;;;;5048094;28;20503;-61
2023/06/22 00:09:34;;;;;;;17.38;15.30;;;18.40;99.90;;;;;;5036461;28;20052;-61
2023/06/22 00:12:03;;;;;;;21.02;18.95;;;18.50;99.90;;;;;;5052671;28;20043;-61
2023/06/22 00:14:28;;;;;;;22.15;19.95;;;18.40;99.90;;;;;;5071837;28;20384;-60
2023/06/22 00:16:58;;;;;;;20.58;18.38;;;18.40;99.90;;;;;;5049831;28;20035;-60
2023/06/22 00:19:25;;;;;;;16.23;14.52;;;18.30;99.90;;;;;;5051390;28;20040;-60
2023/06/22 00:21:53;;;;;;;19.95;18.02;;;18.30;99.90;;;;;;5069634;28;20560;-62
2023/06/22 00:24:20;;;;;;;18.10;16.17;;;18.30;99.90;;;;;;5045475;28;20084;-61
2023/06/22 00:26:47;;;;;;;16.95;15.20;;;18.20;99.90;;;;;;5049852;28;20036;-61
2023/06/22 00:29:13;;;;;;;16.52;13.95;;;18.20;99.90;;;;;;5050845;28;20044;-61
2023/06/22 00:31:39;;;;;;;15.50;12.77;;;18.20;99.90;;;;;;5048535;28;20047;-61
2023/06/22 00:34:06;;;;;;;20.73;17.52;;;18.20;99.90;;;;;;5073058;28;20040;-61
2023/06/22 00:36:32;;;;;;;25.30;20.90;;;18.20;99.90;;;;;;5068950;28;20605;-61
2023/06/22 00:38:58;;;;;;;20.30;17.98;;;18.20;99.90;;;;;;5049229;28;20041;-60
2023/06/22 00:41:28;;;;;;;22.13;19.52;;;18.10;99.90;;;;;;5051187;28;20036;-61
2023/06/22 00:43:54;;;;;;;21.30;17.50;;;18.10;99.90;;;;;;5069357;28;20079;-61
2023/06/22 00:46:23;;;;;;;20.25;16.92;;;18.20;99.90;;;;;;5050594;28;20060;-61
2023/06/22 00:48:51;;;;;;;25.52;22.48;;;18.20;99.90;;;;;;5068268;28;20179;-62
2023/06/22 00:51:17;;;;;;;24.88;21.30;;;18.20;99.90;;;;;;5046901;28;20056;-61
2023/06/22 00:53:43;;;;;;;24.10;21.63;;;18.10;99.90;;;;;;5036062;28;20041;-59
2023/06/22 00:56:12;;;;;;;24.75;20.52;;;18.10;99.90;;;;;;5046812;28;20080;-59
2023/06/22 00:58:41;;;;;;;27.92;24.95;;;18.10;99.90;;;;;;5049132;28;20057;-59
2023/06/22 01:01:07;;;;;;;30.15;25.73;;;18.10;99.90;;;;;;5065438;28;20044;-61
2023/06/22 01:03:33;;;;;;;17.42;14.95;;;18.00;99.90;;;;;;5032219;28;21376;-61
2023/06/22 01:06:09;;;;;;;20.05;17.60;;;18.00;99.90;;;;;;5067201;28;20128;-62
2023/06/22 01:08:37;;;;;;;19.30;17.05;;;18.10;99.90;;;;;;5064969;28;20037;-61
2023/06/22 01:11:12;;;;;;;25.95;23.25;;;18.00;99.90;;;;;;5051804;28;20127;-61
2023/06/22 01:13:53;;;;;;;44.58;28.08;;;18.00;99.90;;;;;;5060398;28;20146;-61
2023/06/22 01:16:29;;;;;;;24.85;22.23;;;18.00;99.90;;;;;;5068792;28;20040;-61
2023/06/22 01:19:28;;;;;;;18.85;16.95;;;17.90;99.90;;;;;;5069466;28;20040;-61
2023/06/22 01:22:00;;;;;;;21.48;18.60;;;17.90;99.90;;;;;;5066442;28;20036;-62
2023/06/22 01:24:41;;;;;;;17.77;15.88;;;17.80;99.90;;;;;;5042144;28;20044;-61
2023/06/22 01:27:22;;;;;;;22.05;19.75;;;17.70;99.90;;;;;;5050208;28;20094;-60
2023/06/22 01:29:52;;;;;;;25.02;22.45;;;17.70;99.90;;;;;;5046782;28;20037;-60
2023/06/22 01:32:19;;;;;;;27.05;22.85;;;17.70;99.90;;;;;;5050120;28;20070;-60
2023/06/22 01:34:47;;;;;;;20.85;18.70;;;17.70;99.90;;;;;;5066090;28;20182;-60
2023/06/22 01:37:14;;;;;;;21.95;19.65;;;17.70;99.90;;;;;;5071549;28;20400;-60
2023/06/22 01:39:40;;;;;;;21.95;19.50;;;17.70;99.90;;;;;;5042474;28;20478;-59
2023/06/22 01:42:06;;;;;;;23.88;21.40;;;17.70;99.90;;;;;;5071834;28;20048;-59
2023/06/22 01:44:36;;;;;;;23.48;21.08;;;17.70;99.90;;;;;;5049957;28;20094;-60
2023/06/22 01:47:02;;;;;;;28.92;24.73;;;17.70;99.90;;;;;;5066998;28;20052;-61
2023/06/22 01:49:28;;;;;;;28.38;24.45;;;17.70;99.90;;;;;;5047510;28;20045;-60
2023/06/22 01:51:54;;;;;;;25.02;22.42;;;17.70;99.90;;;;;;5068561;28;20115;-61
2023/06/22 01:54:20;;;;;;;28.02;25.23;;;17.70;99.90;;;;;;5046805;28;20131;-60
2023/06/22 01:56:46;;;;;;;30.38;26.63;;;17.70;99.90;;;;;;5046090;28;20036;-60
2023/06/22 01:59:26;;;;;;;24.65;22.25;;;17.70;99.90;;;;;;5067399;28;20499;-60
2023/06/22 02:02:04;;;;;;;17.90;16.13;;;17.70;99.90;;;;;;5065712;28;20496;-61
2023/06/22 02:04:42;;;;;;;29.98;25.58;;;17.70;99.90;;;;;;5033149;28;20051;-60
2023/06/22 02:07:13;;;;;;;29.35;26.17;;;17.70;99.90;;;;;;5071651;28;20040;-61
2023/06/22 02:09:46;;;;;;;27.23;23.42;;;17.70;99.90;;;;;;5066301;28;20045;-60
2023/06/22 02:12:16;;;;;;;28.10;25.13;;;17.60;99.90;;;;;;5044843;28;20099;-60
2023/06/22 02:14:43;;;;;;;23.05;20.80;;;17.50;99.90;;;;;;5059794;28;20036;-60
2023/06/22 02:17:09;;;;;;;26.30;23.38;;;17.50;99.90;;;;;;5044389;28;20067;-60
2023/06/22 02:19:41;;;;;;;34.28;27.27;;;17.50;99.90;;;;;;5049517;28;20048;-60
2023/06/22 02:22:06;;;;;;;28.13;24.90;;;17.50;99.90;;;;;;5066566;28;20040;-60
2023/06/22 02:24:33;;;;;;;27.05;24.13;;;17.40;99.90;;;;;;5063921;28;20040;-60
2023/06/22 02:26:59;;;;;;;32.15;28.58;;;17.40;99.90;;;;;;5029040;28;20036;-60
2023/06/22 02:29:26;;;;;;;27.50;24.60;;;17.30;99.90;;;;;;5068288;28;20037;-59
2023/06/22 02:31:52;;;;;;;30.45;25.85;;;17.40;99.90;;;;;;5059409;28;20047;-60
2023/06/22 02:34:18;;;;;;;27.25;24.42;;;17.40;99.90;;;;;;5051692;28;20115;-60
2023/06/22 02:36:50;;;;;;;30.70;26.20;;;17.30;99.90;;;;;;5064882;28;20029;-60
2023/06/22 02:39:23;;;;;;;27.70;24.77;;;17.30;99.90;;;;;;5031198;28;20106;-60
2023/06/22 02:41:54;;;;;;;28.38;25.48;;;17.20;99.90;;;;;;5024005;28;20048;-59
2023/06/22 02:44:20;;;;;;;25.20;22.67;;;17.20;99.90;;;;;;5068497;28;20076;-60
2023/06/22 02:46:47;;;;;;;23.95;21.50;;;17.20;99.90;;;;;;5048307;28;20051;-59
2023/06/22 02:49:13;;;;;;;22.42;20.02;;;17.30;99.90;;;;;;5067764;28;20041;-60
2023/06/22 02:51:41;;;;;;;26.73;24.02;;;17.30;99.90;;;;;;5047776;28;20557;-60
2023/06/22 02:54:07;;;;;;;26.20;23.50;;;17.30;99.90;;;;;;5064983;28;20033;-59
2023/06/22 02:56:33;;;;;;;22.23;19.92;;;17.30;99.90;;;;;;5033070;28;20064;-60
2023/06/22 02:59:02;;;;;;;20.67;18.65;;;17.20;99.90;;;;;;5069017;28;20125;-59
2023/06/22 03:01:30;;;;;;;18.85;16.83;;;17.20;99.90;;;;;;5046860;28;20078;-60
2023/06/22 03:03:56;;;;;;;15.40;13.90;;;17.20;99.90;;;;;;5033284;28;20091;-61
2023/06/22 03:06:23;;;;;;;16.00;14.50;;;17.20;99.90;;;;;;5063470;28;20040;-60
2023/06/22 03:08:49;;;;;;;19.77;17.88;;;17.20;99.90;;;;;;5067932;28;20138;-59
2023/06/22 03:11:18;;;;;;;21.40;19.13;;;17.10;99.90;;;;;;5052819;28;20040;-60
2023/06/22 03:13:46;;;;;;;17.63;15.90;;;17.10;99.90;;;;;;5056076;28;20033;-59
2023/06/22 03:16:12;;;;;;;20.38;18.40;;;17.00;99.90;;;;;;5052875;28;20036;-59
2023/06/22 03:18:37;;;;;;;19.67;17.77;;;17.00;99.90;;;;;;5034166;28;20118;-61
2023/06/22 03:21:03;;;;;;;23.75;21.45;;;17.00;99.90;;;;;;5066490;28;20103;-61
2023/06/22 03:23:29;;;;;;;27.13;20.80;;;17.00;99.90;;;;;;5061293;28;20391;-60
2023/06/22 03:25:55;;;;;;;22.33;19.52;;;17.00;99.90;;;;;;5070781;28;20130;-59
2023/06/22 03:28:21;;;;;;;25.23;22.63;;;17.00;99.90;;;;;;5052048;28;20072;-60
2023/06/22 03:30:47;;;;;;;19.42;17.52;;;17.00;99.90;;;;;;5071492;28;20511;-60
2023/06/22 03:33:13;;;;;;;22.60;20.20;;;17.10;99.90;;;;;;5069518;28;20044;-60
2023/06/22 03:35:39;;;;;;;23.55;21.10;;;17.10;99.90;;;;;;5074782;28;20035;-60
2023/06/22 03:38:04;;;;;;;21.70;19.55;;;17.00;99.90;;;;;;5068248;28;20068;-60
2023/06/22 03:40:30;;;;;;;21.45;19.27;;;17.00;99.90;;;;;;5053570;28;20079;-60
2023/06/22 03:42:57;;;;;;;22.92;20.58;;;17.00;99.90;;;;;;5049152;28;20060;-60
2023/06/22 03:45:23;;;;;;;23.23;20.80;;;17.00;99.90;;;;;;5051556;28;20629;-61
2023/06/22 03:47:49;;;;;;;18.60;16.35;;;17.00;99.90;;;;;;5069523;28;20083;-61
2023/06/22 03:50:14;;;;;;;18.77;16.88;;;16.90;99.90;;;;;;5053245;28;20044;-60
2023/06/22 03:52:40;;;;;;;23.90;21.63;;;16.90;99.90;;;;;;5052186;28;20075;-60
2023/06/22 03:55:07;;;;;;;21.75;19.63;;;16.90;99.90;;;;;;5048852;28;20049;-60
2023/06/22 03:57:33;;;;;;;22.20;19.90;;;17.00;99.90;;;;;;5068849;28;20040;-59
2023/06/22 03:59:59;;;;;;;16.27;14.75;;;17.00;99.90;;;;;;5070045;28;20384;-60
2023/06/22 04:02:25;;;;;;;27.45;24.80;;;17.10;99.90;;;;;;5053271;28;20043;-60
2023/06/22 04:04:51;;;;;;;31.77;28.13;;;17.10;99.90;;;;;;5070141;28;20665;-59
2023/06/22 04:07:17;;;;;;;19.48;17.55;;;17.10;99.90;;;;;;5061690;28;20047;-60
2023/06/22 04:09:43;;;;;;;19.88;17.88;;;17.10;99.90;;;;;;5043557;28;20045;-60
2023/06/22 04:12:09;;;;;;;19.67;17.75;;;17.10;99.90;;;;;;5065606;28;20613;-59
2023/06/22 04:14:35;;;;;;;21.50;17.40;;;17.10;99.90;;;;;;5069815;28;20027;-60
2023/06/22 04:17:01;;;;;;;24.52;21.92;;;17.10;99.90;;;;;;5051042;28;20050;-60
2023/06/22 04:19:27;;;;;;;26.17;23.67;;;17.10;99.90;;;;;;5069395;28;20048;-60
2023/06/22 04:21:52;;;;;;;23.73;21.42;;;17.10;99.90;;;;;;5066085;28;20040;-61
2023/06/22 04:24:18;;;;;;;21.92;19.73;;;17.10;99.90;;;;;;5069204;28;20052;-60
2023/06/22 04:26:46;;;;;;;24.38;22.08;;;17.10;99.90;;;;;;5062090;28;20613;-59
2023/06/22 04:29:12;;;;;;;25.75;23.20;;;17.10;99.90;;;;;;5044972;28;20056;-60
2023/06/22 04:31:38;;;;;;;22.35;20.15;;;17.10;99.90;;;;;;5058004;28;20032;-60
2023/06/22 04:34:08;;;;;;;20.40;18.50;;;17.10;99.90;;;;;;5053722;28;20040;-60
2023/06/22 04:36:40;;;;;;;29.67;26.73;;;17.20;99.90;;;;;;5051217;28;20040;-60
2023/06/22 04:39:11;;;;;;;16.52;14.93;;;17.20;99.90;;;;;;5067743;28;20051;-61
2023/06/22 04:41:44;;;;;;;20.13;18.20;;;17.20;99.90;;;;;;5044455;28;20106;-60
2023/06/22 04:44:26;;;;;;;28.77;25.75;;;17.30;99.90;;;;;;5066944;28;20169;-59
2023/06/22 04:46:54;;;;;;;24.95;22.52;;;17.30;99.90;;;;;;5047556;28;20655;-60
2023/06/22 04:49:21;;;;;;;32.08;28.67;;;17.30;99.90;;;;;;5062066;28;20122;-60
2023/06/22 04:51:47;;;;;;;27.35;24.20;;;17.30;99.90;;;;;;5034862;28;20040;-59
2023/06/22 04:54:13;;;;;;;23.27;20.77;;;17.40;99.90;;;;;;5067814;28;20112;-60
2023/06/22 04:56:40;;;;;;;30.75;27.63;;;17.40;99.90;;;;;;5045177;28;20159;-61
2023/06/22 04:59:07;;;;;;;28.35;24.65;;;17.40;99.90;;;;;;5060607;28;20511;-61
2023/06/22 05:01:34;;;;;;;25.65;22.92;;;17.40;99.90;;;;;;5068650;28;20120;-61
2023/06/22 05:04:01;;;;;;;35.70;31.83;;;17.40;99.90;;;;;;5069294;28;20752;-61
2023/06/22 05:06:27;;;;;;;43.60;36.50;;;17.50;99.90;;;;;;5050714;28;20113;-61
2023/06/22 05:08:57;;;;;;;32.75;28.88;;;17.50;99.90;;;;;;5069106;28;20693;-60
2023/06/22 05:11:27;;;;;;;25.95;23.15;;;17.50;99.90;;;;;;5065368;28;20060;-60
2023/06/22 05:13:54;;;;;;;46.88;37.88;;;17.60;99.90;;;;;;5051804;28;20112;-60
2023/06/22 05:16:26;;;;;;;46.50;39.13;;;17.60;99.90;;;;;;5047757;28;20044;-61
2023/06/22 05:18:55;;;;;;;36.55;32.50;;;17.70;99.90;;;;;;5050463;28;20064;-61
2023/06/22 05:21:26;;;;;;;32.92;29.45;;;17.70;99.90;;;;;;5046965;28;20032;-61
2023/06/22 05:23:59;;;;;;;49.28;41.22;;;17.80;99.90;;;;;;5069470;28;20037;-60
2023/06/22 05:26:26;;;;;;;45.20;40.07;;;17.90;99.90;;;;;;5049690;28;20045;-61
2023/06/22 05:28:52;;;;;;;49.70;40.80;;;17.90;99.90;;;;;;5039290;28;20303;-60
2023/06/22 05:31:19;;;;;;;43.20;37.20;;;17.90;99.90;;;;;;5056547;28;20040;-60
2023/06/22 05:33:46;;;;;;;49.03;41.47;;;18.00;99.90;;;;;;5048319;28;20040;-60
2023/06/22 05:36:12;;;;;;;55.15;42.90;;;18.10;99.90;;;;;;5050173;28;20127;-61
2023/06/22 05:38:39;;;;;;;45.10;39.20;;;18.20;99.90;;;;;;5066094;28;20468;-61
2023/06/22 05:41:04;;;;;;;44.10;38.25;;;18.30;99.90;;;;;;5068592;28;20046;-61
2023/06/22 05:43:31;;;;;;;41.70;35.25;;;18.30;99.90;;;;;;5060621;28;20123;-60
2023/06/22 05:45:57;;;;;;;39.92;35.65;;;18.50;99.90;;;;;;5042845;28;20451;-60
2023/06/22 05:48:23;;;;;;;39.90;34.47;;;18.50;99.90;;;;;;5058352;28;20373;-60
2023/06/22 05:50:49;;;;;;;36.80;32.80;;;18.60;99.90;;;;;;5044436;28;20047;-60
2023/06/22 05:53:15;;;;;;;43.20;35.50;;;18.70;99.90;;;;;;5046566;28;20047;-60
2023/06/22 05:55:40;;;;;;;37.90;33.72;;;18.80;99.90;;;;;;5043322;28;20143;-61
2023/06/22 05:58:06;;;;;;;38.72;32.92;;;18.90;99.90;;;;;;5027021;28;20495;-60
2023/06/22 06:00:32;;;;;;;37.25;32.35;;;19.00;99.90;;;;;;5056087;28;20120;-61
2023/06/22 06:03:02;;;;;;;44.35;36.17;;;19.00;99.90;;;;;;5047788;28;20083;-59
2023/06/22 06:05:32;;;;;;;43.05;33.30;;;19.10;99.90;;;;;;5050896;28;20119;-61
2023/06/22 06:07:59;;;;;;;31.00;26.90;;;19.20;99.90;;;;;;5065544;28;20048;-61
2023/06/22 06:10:25;;;;;;;38.22;32.70;;;19.30;99.90;;;;;;5064438;28;20044;-60
2023/06/22 06:12:51;;;;;;;36.30;32.03;;;19.30;99.90;;;;;;5065126;28;20033;-60
2023/06/22 06:15:17;;;;;;;32.78;29.27;;;19.30;99.90;;;;;;5049921;28;20045;-61
2023/06/22 06:17:50;;;;;;;32.13;28.73;;;19.30;99.90;;;;;;5067306;28;20104;-60
2023/06/22 06:20:20;;;;;;;30.90;27.63;;;19.30;99.90;;;;;;5047130;28;20036;-60
2023/06/22 06:22:46;;;;;;;35.17;31.17;;;19.40;99.90;;;;;;5048225;28;20488;-60
2023/06/22 06:25:15;;;;;;;30.05;26.80;;;19.40;99.90;;;;;;5033932;28;21118;-61
2023/06/22 06:27:49;;;;;;;35.05;29.88;;;19.40;99.90;;;;;;5046681;28;20036;-60
2023/06/22 06:30:17;;;;;;;25.83;23.05;;;19.50;99.90;;;;;;5029883;28;20467;-61
2023/06/22 06:32:45;;;;;;;31.40;27.98;;;19.50;99.90;;;;;;5066516;28;20395;-61
2023/06/22 06:35:12;;;;;;;28.95;26.02;;;19.50;99.90;;;;;;5048219;28;20040;-60
2023/06/22 06:37:43;;;;;;;34.75;31.10;;;19.60;99.90;;;;;;5065121;28;20047;-60
2023/06/22 06:40:10;;;;;;;36.63;32.80;;;19.70;99.90;;;;;;5048805;28;20558;-61
2023/06/22 06:42:41;;;;;;;31.70;28.05;;;19.60;99.90;;;;;;5049894;28;20040;-61
2023/06/22 06:45:08;;;;;;;30.17;26.55;;;19.60;99.90;;;;;;5060313;28;20124;-61
2023/06/22 06:47:34;;;;;;;34.63;30.98;;;19.70;99.90;;;;;;5051273;28;20097;-59
2023/06/22 06:50:00;;;;;;;31.38;28.05;;;19.70;99.90;;;;;;5064152;28;20075;-61
2023/06/22 06:52:26;;;;;;;34.75;31.23;;;19.70;99.90;;;;;;5067878;28;20064;-60
2023/06/22 06:54:52;;;;;;;34.72;31.25;;;19.80;99.90;;;;;;5062391;28;20068;-61
2023/06/22 06:57:18;;;;;;;32.97;28.83;;;19.90;99.90;;;;;;5047573;28;20070;-61
2023/06/22 06:59:44;;;;;;;35.55;31.88;;;20.00;99.90;;;;;;5046476;28;20063;-61
2023/06/22 07:02:10;;;;;;;35.40;30.88;;;20.10;99.90;;;;;;5067510;28;20115;-61
2023/06/22 07:04:35;;;;;;;29.50;26.20;;;20.10;99.90;;;;;;5041064;28;20056;-61
2023/06/22 07:07:02;;;;;;;30.30;27.05;;;20.20;99.90;;;;;;5058154;28;20128;-61
2023/06/22 07:09:28;;;;;;;32.13;28.67;;;20.30;99.90;;;;;;5044302;28;20385;-61
2023/06/22 07:11:54;;;;;;;32.88;29.67;;;20.40;99.90;;;;;;5065170;28;20090;-61
2023/06/22 07:14:19;;;;;;;30.48;27.38;;;20.40;99.90;;;;;;5064738;28;20036;-61
2023/06/22 07:16:45;;;;;;;30.52;27.33;;;20.50;99.90;;;;;;5052023;28;20630;-59
2023/06/22 07:19:14;;;;;;;32.33;29.02;;;20.70;99.90;;;;;;5068489;28;20037;-60
2023/06/22 07:21:39;;;;;;;30.92;27.73;;;20.80;99.90;;;;;;5062782;28;20400;-61
2023/06/22 07:24:06;;;;;;;29.92;26.75;;;20.80;99.90;;;;;;5048800;28;20041;-61
2023/06/22 07:26:32;;;;;;;30.50;27.33;;;20.90;99.90;;;;;;5034288;28;20037;-61
2023/06/22 07:28:58;;;;;;;29.50;26.15;;;21.10;99.90;;;;;;5067917;28;20066;-61
2023/06/22 07:31:25;;;;;;;29.98;27.08;;;21.20;99.90;;;;;;5026883;28;20040;-61
2023/06/22 07:33:51;;;;;;;30.30;27.23;;;21.30;99.90;;;;;;5045436;28;20130;-61
2023/06/22 07:36:17;;;;;;;29.98;26.95;;;21.40;99.90;;;;;;5058316;28;20040;-61
2023/06/22 07:38:44;;;;;;;27.95;25.27;;;21.50;99.90;;;;;;5068403;28;20385;-61
2023/06/22 07:41:10;;;;;;;28.70;25.17;;;21.50;99.90;;;;;;5066729;28;20092;-61
2023/06/22 07:43:36;;;;;;;25.80;22.83;;;21.50;99.90;;;;;;5066160;28;20115;-60
2023/06/22 07:46:05;;;;;;;25.52;22.80;;;21.60;99.90;;;;;;5064215;28;20050;-59
2023/06/22 07:48:31;;;;;;;27.05;23.10;;;21.70;99.90;;;;;;5067814;28;20032;-61
2023/06/22 07:50:57;;;;;;;26.20;23.65;;;21.70;99.90;;;;;;5046156;28;20055;-61
2023/06/22 07:53:23;;;;;;;23.45;21.05;;;21.90;99.90;;;;;;5042613;28;20040;-61
2023/06/22 07:55:49;;;;;;;23.65;21.25;;;22.00;99.90;;;;;;5046335;28;20102;-61
2023/06/22 07:58:20;;;;;;;24.60;21.83;;;22.00;99.90;;;;;;5069948;28;20040;-61
2023/06/22 08:00:47;;;;;;;24.15;20.73;;;22.10;99.90;;;;;;5068667;28;20380;-61
2023/06/22 08:03:13;;;;;;;29.55;22.70;;;22.10;99.90;;;;;;5067851;28;20051;-61
2023/06/22 08:05:39;;;;;;;25.98;23.27;;;22.20;99.90;;;;;;5068780;28;20047;-60
2023/06/22 08:08:04;;;;;;;23.45;21.05;;;22.20;99.90;;;;;;5070351;28;20546;-60
2023/06/22 08:10:30;;;;;;;23.50;21.20;;;22.30;99.90;;;;;;5053917;28;20036;-61
2023/06/22 08:12:56;;;;;;;25.63;21.50;;;22.30;99.90;;;;;;5065276;28;20064;-61
2023/06/22 08:15:21;;;;;;;21.20;18.95;;;22.40;99.90;;;;;;5072032;28;20059;-61
2023/06/22 08:17:47;;;;;;;29.05;21.90;;;22.50;99.90;;;;;;5070486;28;20044;-60
2023/06/22 08:20:13;;;;;;;23.50;21.20;;;22.60;99.90;;;;;;5052739;28;20044;-60
2023/06/22 08:22:40;;;;;;;23.30;20.55;;;22.70;99.90;;;;;;5064134;28;20056;-62
2023/06/22 08:25:07;;;;;;;23.77;21.35;;;22.80;99.90;;;;;;5043731;28;20052;-61
2023/06/22 08:27:33;;;;;;;23.05;20.55;;;22.80;99.90;;;;;;5045518;28;20048;-61
2023/06/22 08:30:00;;;;;;;19.98;17.98;;;23.00;99.90;;;;;;5065339;28;20059;-60
2023/06/22 08:32:27;;;;;;;23.50;21.00;;;23.10;99.90;;;;;;5050230;28;20051;-60
2023/06/22 08:34:54;;;;;;;22.17;19.95;;;23.20;99.90;;;;;;5073843;28;20126;-61
2023/06/22 08:37:20;;;;;;;23.10;20.77;;;23.30;99.90;;;;;;5051590;28;20048;-61
2023/06/22 08:39:46;;;;;;;22.50;20.30;;;23.40;99.90;;;;;;5071492;28;20059;-60
2023/06/22 08:42:12;;;;;;;21.20;19.10;;;23.40;99.90;;;;;;5067219;28;20041;-60
2023/06/22 08:44:38;;;;;;;21.45;19.25;;;23.50;99.90;;;;;;5047334;28;20663;-60
2023/06/22 08:47:04;;;;;;;22.85;20.35;;;23.50;99.90;;;;;;5070658;28;20079;-60
2023/06/22 08:49:29;;;;;;;20.20;18.13;;;23.40;99.90;;;;;;5051395;28;20466;-60
2023/06/22 08:51:56;;;;;;;22.70;19.83;;;23.60;99.90;;;;;;5065761;28;20043;-60
2023/06/22 08:54:22;;;;;;;19.13;17.15;;;23.70;99.90;;;;;;5049851;28;20044;-60
2023/06/22 08:56:48;;;;;;;18.33;16.10;;;23.80;99.90;;;;;;5070044;28;20111;-60
2023/06/22 08:59:14;;;;;;;17.88;16.08;;;23.90;99.90;;;;;;5069155;28;20524;-60
2023/06/22 09:01:40;;;;;;;21.48;19.02;;;24.00;99.90;;;;;;5066691;28;20115;-60
2023/06/22 09:04:07;;;;;;;16.95;14.85;;;24.00;99.90;;;;;;5051301;28;20040;-60
2023/06/22 09:06:33;;;;;;;17.58;15.60;;;24.10;99.90;;;;;;5049014;28;20048;-59
2023/06/22 09:08:59;;;;;;;14.90;12.65;;;24.00;99.90;;;;;;5069295;28;20040;-61
2023/06/22 09:11:25;;;;;;;16.77;15.00;;;24.10;99.90;;;;;;5037455;28;20072;-58
2023/06/22 09:13:52;;;;;;;17.65;15.75;;;24.20;99.90;;;;;;5068604;28;20086;-61
2023/06/22 09:16:18;;;;;;;16.25;14.57;;;24.10;99.90;;;;;;5034803;28;20028;-61
2023/06/22 09:18:47;;;;;;;17.80;14.18;;;24.10;99.90;;;;;;5049398;28;20106;-61
2023/06/22 09:21:13;;;;;;;17.33;14.25;;;24.30;99.90;;;;;;5046940;28;20032;-60
2023/06/22 09:23:39;;;;;;;17.38;15.35;;;24.40;99.90;;;;;;5038355;28;20060;-60
2023/06/22 09:26:04;;;;;;;16.20;14.48;;;24.50;99.90;;;;;;5063789;28;20059;-60
2023/06/22 09:28:30;;;;;;;15.57;14.07;;;24.50;99.90;;;;;;5066074;28;20045;-60
2023/06/22 09:30:58;;;;;;;15.88;13.95;;;24.70;99.90;;;;;;5059316;28;20040;-60
2023/06/22 09:33:25;;;;;;;17.13;15.32;;;24.80;99.90;;;;;;5065792;28;20063;-59
2023/06/22 09:35:50;;;;;;;16.83;15.13;;;24.60;99.80;;;;;;5061176;28;20040;-60
2023/06/22 09:38:17;;;;;;;14.98;13.40;;;24.60;99.90;;;;;;5070422;28;20036;-60
2023/06/22 09:40:42;;;;;;;13.98;12.50;;;24.80;99.90;;;;;;5061029;28;20039;-59
2023/06/22 09:43:08;;;;;;;14.73;13.13;;;25.10;99.90;;;;;;5060761;28;20044;-59
2023/06/22 09:45:34;;;;;;;15.27;12.68;;;25.30;99.90;;;;;;5062140;28;20116;-60
2023/06/22 09:48:00;;;;;;;11.70;10.05;;;25.40;99.80;;;;;;5047044;28;20119;-61
2023/06/22 09:50:25;;;;;;;10.10;8.98;;;25.40;99.50;;;;;;5068236;28;20057;-59
2023/06/22 09:52:54;;;;;;;12.35;11.07;;;25.40;98.70;;;;;;5051854;28;20029;-59
2023/06/22 09:55:21;;;;;;;15.02;12.07;;;25.50;98.30;;;;;;5055505;28;20051;-59
2023/06/22 09:57:47;;;;;;;12.00;10.70;;;25.40;97.70;;;;;;5064763;28;20493;-59
2023/06/22 10:00:15;;;;;;;14.15;12.65;;;25.30;98.50;;;;;;5050604;28;20135;-59
2023/06/22 10:02:44;;;;;;;12.48;11.05;;;25.50;98.00;;;;;;5046913;28;20037;-59
2023/06/22 10:05:09;;;;;;;13.30;11.85;;;25.70;98.10;;;;;;5066292;28;20040;-58
2023/06/22 10:07:39;;;;;;;12.95;11.30;;;25.90;98.60;;;;;;5068551;28;20032;-59
2023/06/22 10:10:06;;;;;;;10.63;9.52;;;26.00;97.50;;;;;;5023680;28;20049;-59
2023/06/22 10:12:32;;;;;;;14.63;12.13;;;26.00;97.40;;;;;;5044933;28;20033;-59
2023/06/22 10:14:58;;;;;;;14.13;12.27;;;26.20;97.60;;;;;;5063411;28;20036;-59
2023/06/22 10:17:23;;;;;;;13.00;11.05;;;26.20;96.90;;;;;;5060253;28;20029;-59
2023/06/22 10:19:49;;;;;;;11.25;9.57;;;26.20;96.70;;;;;;5062209;28;20045;-59
2023/06/22 10:22:15;;;;;;;10.98;9.20;;;26.40;96.70;;;;;;5041513;28;20131;-59
2023/06/22 10:24:44;;;;;;;10.27;8.70;;;26.40;96.40;;;;;;5045998;28;20098;-60
2023/06/22 10:27:13;;;;;;;10.68;9.40;;;26.20;96.00;;;;;;5044102;28;20080;-60
2023/06/22 10:29:41;;;;;;;12.40;9.32;;;26.20;95.80;;;;;;5060618;28;20063;-59
2023/06/22 10:32:07;;;;;;;10.32;9.23;;;26.40;96.00;;;;;;5047198;28;20135;-59
2023/06/22 10:34:33;;;;;;;10.23;9.13;;;26.40;95.40;;;;;;5068155;28;20040;-60
2023/06/22 10:36:59;;;;;;;10.77;9.68;;;26.30;95.40;;;;;;5062974;28;20044;-60
2023/06/22 10:39:25;;;;;;;8.43;7.20;;;26.30;95.40;;;;;;5037356;28;20040;-60
2023/06/22 10:41:50;;;;;;;10.23;7.95;;;26.40;95.30;;;;;;5061944;28;20491;-60
2023/06/22 10:44:17;;;;;;;10.18;8.77;;;26.40;95.20;;;;;;5061894;28;20118;-60
2023/06/22 10:46:43;;;;;;;8.20;7.13;;;26.60;94.80;;;;;;5034574;28;20048;-59
2023/06/22 10:49:08;;;;;;;9.30;7.53;;;26.70;94.90;;;;;;5040603;28;20632;-59
2023/06/22 10:51:34;;;;;;;8.10;6.25;;;26.90;94.60;;;;;;5057417;28;20174;-60
2023/06/22 10:54:00;;;;;;;9.05;5.93;;;26.90;93.70;;;;;;5050073;28;20097;-60
2023/06/22 10:56:25;;;;;;;9.05;6.72;;;27.00;94.00;;;;;;5065838;28;20586;-59
2023/06/22 10:58:51;;;;;;;6.20;5.55;;;26.90;93.10;;;;;;5062362;28;20043;-60
2023/06/22 11:01:17;;;;;;;7.75;5.30;;;26.70;92.90;;;;;;5044420;28;20542;-59
2023/06/22 11:03:43;;;;;;;7.05;5.38;;;26.70;93.40;;;;;;5062539;28;20523;-59
2023/06/22 11:06:08;;;;;;;5.85;5.25;;;26.90;93.60;;;;;;5052696;28;20053;-60
2023/06/22 11:08:34;;;;;;;6.32;5.15;;;27.00;93.00;;;;;;5044791;28;20498;-59
2023/06/22 11:11:00;;;;;;;8.68;5.68;;;27.10;92.20;;;;;;5071119;28;20109;-60
2023/06/22 11:13:25;;;;;;;6.60;5.18;;;27.10;92.50;;;;;;5041666;28;20040;-60
2023/06/22 11:15:51;;;;;;;5.10;4.35;;;27.20;92.00;;;;;;5065035;28;20521;-60
2023/06/22 11:18:17;;;;;;;5.10;4.50;;;27.30;91.70;;;;;;5046053;28;20256;-59
2023/06/22 11:20:42;;;;;;;8.38;5.97;;;27.30;91.60;;;;;;5059730;28;20132;-59
2023/06/22 11:23:08;;;;;;;8.60;5.90;;;27.20;91.70;;;;;;5067733;28;20048;-60
2023/06/22 11:25:34;;;;;;;11.10;7.47;;;27.20;92.40;;;;;;5067391;28;20119;-60
2023/06/22 11:28:02;;;;;;;8.10;6.75;;;27.20;92.40;;;;;;5029520;28;20093;-59
2023/06/22 11:30:28;;;;;;;8.05;7.25;;;27.10;92.50;;;;;;5054043;28;20562;-60
2023/06/22 11:32:54;;;;;;;7.38;6.30;;;27.20;92.40;;;;;;5073195;28;20043;-60
2023/06/22 11:35:20;;;;;;;8.98;8.07;;;27.20;93.10;;;;;;5060370;28;20446;-59
2023/06/22 11:37:46;;;;;;;8.48;7.05;;;27.20;92.10;;;;;;5071461;28;20028;-62
2023/06/22 11:40:12;;;;;;;7.70;5.85;;;27.10;92.40;;;;;;5049378;28;20051;-60
2023/06/22 11:42:38;;;;;;;6.75;6.00;;;27.00;92.60;;;;;;5054220;28;20105;-61
2023/06/22 11:45:05;;;;;;;8.40;5.93;;;26.90;92.90;;;;;;5061528;28;20040;-60
2023/06/22 11:47:31;;;;;;;6.05;4.53;;;26.90;93.30;;;;;;5055518;28;20036;-59
2023/06/22 11:49:56;;;;;;;10.68;8.55;;;27.10;93.90;;;;;;5062271;28;20640;-60
2023/06/22 11:52:22;;;;;;;10.82;7.30;;;27.10;93.60;;;;;;5047272;28;20051;-60
2023/06/22 11:54:48;;;;;;;8.05;5.63;;;27.30;93.50;;;;;;5049209;28;20044;-60
2023/06/22 11:57:13;;;;;;;4.90;3.90;;;27.40;93.70;;;;;;5069431;28;20040;-60
2023/06/22 11:59:39;;;;;;;4.88;3.65;;;27.40;93.70;;;;;;5052787;28;20037;-60
2023/06/22 12:02:07;;;;;;;13.38;4.53;;;27.10;92.80;;;;;;5052279;28;20507;-60
2023/06/22 12:04:33;;;;;;;6.75;4.00;;;27.10;93.60;;;;;;5062788;28;20704;-59
2023/06/22 12:06:58;;;;;;;5.07;4.18;;;26.80;93.50;;;;;;5072772;28;20032;-59
2023/06/22 12:09:24;;;;;;;4.78;3.88;;;26.60;93.70;;;;;;5038565;28;20060;-60
2023/06/22 12:11:50;;;;;;;4.72;3.70;;;26.50;94.00;;;;;;5049284;28;20036;-60
2023/06/22 12:14:15;;;;;;;8.43;5.10;;;26.40;93.70;;;;;;5051586;28;20028;-59
2023/06/22 12:16:43;;;;;;;6.13;3.97;;;26.30;93.70;;;;;;5022148;28;20090;-60
2023/06/22 12:19:09;;;;;;;6.55;3.88;;;26.30;93.70;;;;;;5033551;28;20077;-60
2023/06/22 12:21:36;;;;;;;4.82;3.25;;;26.10;94.00;;;;;;5039032;28;20041;-59
2023/06/22 12:24:02;;;;;;;4.68;3.08;;;26.00;94.20;;;;;;5069107;28;20740;-58
2023/06/22 12:26:28;;;;;;;5.05;3.40;;;25.90;94.20;;;;;;5033652;28;20099;-60
2023/06/22 12:28:53;;;;;;;4.82;3.63;;;25.90;94.20;;;;;;5050509;28;20044;-60
2023/06/22 12:31:19;;;;;;;4.20;3.65;;;25.90;94.20;;;;;;5050810;28;20036;-60